createdAt,value
2022-09-28T00:01:18.826Z,9.96
2022-09-28T00:03:47.809Z,10.02
2022-09-28T00:06:19.275Z,10.00
2022-09-28T00:08:50.139Z,10.07
2022-09-28T00:11:20.751Z,10.07
2022-09-28T00:13:53.346Z,9.95
2022-09-28T00:16:25.613Z,9.95
2022-09-28T00:18:53.943Z,9.96
2022-09-28T00:21:26.049Z,9.94
2022-09-28T00:24:15.204Z,9.90
2022-09-28T00:26:48.427Z,10.02
2022-09-28T00:29:27.138Z,10.05
2022-09-28T00:31:59.981Z,9.99
2022-09-28T00:34:32.369Z,9.87
2022-09-28T00:37:02.283Z,9.93
2022-09-28T00:39:31.564Z,9.86
2022-09-28T00:42:00.636Z,9.82
2022-09-28T00:44:47.486Z,9.86
2022-09-28T00:47:37.938Z,9.88
2022-09-28T00:50:14.136Z,9.93
2022-09-28T00:52:49.888Z,9.85
2022-09-28T00:55:23.761Z,9.80
2022-09-28T00:57:57.867Z,9.86
2022-09-28T01:00:27.415Z,9.88
2022-09-28T01:02:56.268Z,9.83
2022-09-28T01:05:25.703Z,9.83
2022-09-28T01:07:55.278Z,9.88
2022-09-28T01:10:24.179Z,9.80
2022-09-28T01:12:52.001Z,9.80
2022-09-28T01:15:22.358Z,9.80
2022-09-28T01:18:09.316Z,9.82
2022-09-28T01:21:02.580Z,9.83
2022-09-28T01:24:01.256Z,9.83
2022-09-28T01:27:00.616Z,9.80
2022-09-28T01:29:44.526Z,9.86
2022-09-28T01:32:27.721Z,9.84
2022-09-28T01:35:02.800Z,9.87
2022-09-28T01:37:44.317Z,9.93
2022-09-28T01:40:15.122Z,9.90
2022-09-28T01:42:50.937Z,9.67
2022-09-28T01:45:25.299Z,9.92
2022-09-28T01:48:01.142Z,9.91
2022-09-28T01:50:36.398Z,9.88
2022-09-28T01:53:14.257Z,9.82
2022-09-28T01:55:46.957Z,9.95
2022-09-28T01:58:25.570Z,9.94
2022-09-28T02:01:01.400Z,9.88
2022-09-28T02:03:39.953Z,9.91
2022-09-28T02:06:17.530Z,9.90
2022-09-28T02:08:54.856Z,9.95
2022-09-28T02:11:24.022Z,9.87
2022-09-28T02:14:00.419Z,9.84
2022-09-28T02:16:37.164Z,9.82
2022-09-28T02:19:07.554Z,9.90
2022-09-28T02:21:45.096Z,9.84
2022-09-28T02:24:21.671Z,9.84
2022-09-28T02:26:52.902Z,9.77
2022-09-28T02:29:22.223Z,9.87
2022-09-28T02:31:51.512Z,9.77
2022-09-28T02:34:19.464Z,9.69
2022-09-28T02:36:48.591Z,9.78
2022-09-28T02:39:17.995Z,9.82
2022-09-28T02:42:01.549Z,9.82
2022-09-28T02:44:54.583Z,9.65
2022-09-28T02:47:39.329Z,9.66
2022-09-28T02:50:21.943Z,9.60
2022-09-28T02:53:26.619Z,9.70
2022-09-28T02:56:19.319Z,9.62
2022-09-28T02:59:05.341Z,9.51
2022-09-28T03:01:42.987Z,9.45
2022-09-28T03:04:22.648Z,9.26
2022-09-28T03:07:01.632Z,9.18
2022-09-28T03:09:37.953Z,9.16
2022-09-28T03:12:13.444Z,8.99
2022-09-28T03:14:41.337Z,9.11
2022-09-28T03:17:10.538Z,8.93
2022-09-28T03:19:38.480Z,9.11
2022-09-28T03:22:06.270Z,9.13
2022-09-28T03:24:34.015Z,9.04
2022-09-28T03:27:01.795Z,9.04
2022-09-28T03:29:31.376Z,8.98
2022-09-28T03:31:59.232Z,9.02
2022-09-28T03:34:28.677Z,9.00
2022-09-28T03:36:56.693Z,8.99
2022-09-28T03:39:24.573Z,8.91
2022-09-28T03:41:52.359Z,9.02
2022-09-28T03:44:20.747Z,9.11
2022-09-28T03:46:48.627Z,9.12
2022-09-28T03:49:16.438Z,9.11
2022-09-28T03:51:45.669Z,9.08
2022-09-28T03:54:13.758Z,8.97
2022-09-28T03:56:41.730Z,9.08
2022-09-28T03:59:09.508Z,8.97
2022-09-28T04:01:37.345Z,8.97
2022-09-28T04:04:05.343Z,8.97
2022-09-28T04:06:33.199Z,8.94
2022-09-28T04:09:02.455Z,8.95
2022-09-28T04:11:47.555Z,8.92
2022-09-28T04:14:18.125Z,8.93
2022-09-28T04:16:48.068Z,8.90
2022-09-28T04:19:16.589Z,8.94
2022-09-28T04:21:44.928Z,9.04
2022-09-28T04:24:14.562Z,8.99
2022-09-28T04:26:42.425Z,9.03
2022-09-28T04:29:16.073Z,9.10
2022-09-28T04:31:47.332Z,9.15
2022-09-28T04:34:18.264Z,9.20
2022-09-28T04:36:46.615Z,9.14
2022-09-28T04:39:19.185Z,9.12
2022-09-28T04:41:49.392Z,9.10
2022-09-28T04:44:17.281Z,9.05
2022-09-28T04:46:45.171Z,8.98
2022-09-28T04:49:13.131Z,8.98
2022-09-28T04:51:40.953Z,9.00
2022-09-28T04:54:08.721Z,8.96
2022-09-28T04:56:37.848Z,8.96
2022-09-28T04:59:06.177Z,9.02
2022-09-28T05:01:34.097Z,9.04
2022-09-28T05:04:02.546Z,9.03
2022-09-28T05:06:30.788Z,8.92
2022-09-28T05:08:59.267Z,8.95
2022-09-28T05:11:27.149Z,8.95
2022-09-28T05:13:56.680Z,8.98
2022-09-28T05:16:25.618Z,9.11
2022-09-28T05:18:56.458Z,9.13
2022-09-28T05:21:25.390Z,9.08
2022-09-28T05:23:56.145Z,9.15
2022-09-28T05:26:24.228Z,9.20
2022-09-28T05:28:52.331Z,9.27
2022-09-28T05:31:21.506Z,9.28
2022-09-28T05:33:49.477Z,9.28
2022-09-28T05:36:17.344Z,9.31
2022-09-28T05:38:45.162Z,9.32
2022-09-28T05:41:13.544Z,9.34
2022-09-28T05:43:41.438Z,9.32
2022-09-28T05:46:09.301Z,9.36
2022-09-28T05:48:38.521Z,9.31
2022-09-28T05:51:06.789Z,9.36
2022-09-28T05:53:34.627Z,9.28
2022-09-28T05:56:03.226Z,9.35
2022-09-28T05:58:31.055Z,9.37
2022-09-28T06:00:59.640Z,9.33
2022-09-28T06:03:28.648Z,9.28
2022-09-28T06:05:57.766Z,9.35
2022-09-28T06:08:25.556Z,9.52
2022-09-28T06:10:53.437Z,9.51
2022-09-28T06:13:21.289Z,9.55
2022-09-28T06:15:49.121Z,9.61
2022-09-28T06:18:16.935Z,9.66
2022-09-28T06:20:44.785Z,9.74
2022-09-28T06:23:14.992Z,9.74
2022-09-28T06:25:43.083Z,9.84
2022-09-28T06:28:13.608Z,9.91
2022-09-28T06:30:42.910Z,10.07
2022-09-28T06:33:14.360Z,10.17
2022-09-28T06:35:42.654Z,10.15
2022-09-28T06:38:10.705Z,10.30
2022-09-28T06:40:40.253Z,10.27
2022-09-28T06:43:14.856Z,10.34
2022-09-28T06:45:44.364Z,10.37
2022-09-28T06:48:13.392Z,10.37
2022-09-28T06:50:42.530Z,10.29
2022-09-28T06:53:14.762Z,10.28
2022-09-28T06:55:48.964Z,10.18
2022-09-28T06:58:20.073Z,10.10
2022-09-28T07:00:50.901Z,10.01
2022-09-28T07:03:21.767Z,9.98
2022-09-28T07:05:53.862Z,9.86
2022-09-28T07:08:24.765Z,10.19
2022-09-28T07:10:56.430Z,10.11
2022-09-28T07:16:14.041Z,10.38
2022-09-28T07:18:42.268Z,10.52
2022-09-28T07:21:21.114Z,10.54
2022-09-28T07:23:54.321Z,10.51
2022-09-28T07:26:24.706Z,10.69
2022-09-28T07:28:54.268Z,10.66
2022-09-28T07:31:23.093Z,10.73
2022-09-28T07:33:52.096Z,10.74
2022-09-28T07:36:20.974Z,10.74
2022-09-28T07:38:48.933Z,10.76
2022-09-28T07:41:21.584Z,10.75
2022-09-28T07:43:50.938Z,11.17
2022-09-28T07:46:19.211Z,11.45
2022-09-28T07:48:47.052Z,11.55
2022-09-28T07:51:14.900Z,11.55
2022-09-28T07:53:42.760Z,11.45
2022-09-28T07:56:10.636Z,11.60
2022-09-28T07:58:40.545Z,11.49
2022-09-28T08:01:14.905Z,11.48
2022-09-28T08:03:45.134Z,11.47
2022-09-28T08:06:17.024Z,11.51
2022-09-28T08:08:45.782Z,11.57
2022-09-28T08:11:15.255Z,11.37
2022-09-28T08:13:44.013Z,11.56
2022-09-28T08:16:13.479Z,11.83
2022-09-28T08:18:41.422Z,12.04
2022-09-28T08:21:29.421Z,11.93
2022-09-28T08:23:57.731Z,12.53
2022-09-28T08:26:26.133Z,12.53
2022-09-28T08:28:53.986Z,12.59
2022-09-28T08:31:23.268Z,12.97
2022-09-28T08:33:53.791Z,12.77
2022-09-28T08:36:21.758Z,12.88
2022-09-28T08:38:49.862Z,13.15
2022-09-28T08:41:33.179Z,13.29
2022-09-28T08:44:23.674Z,13.15
2022-09-28T08:46:59.645Z,13.23
2022-09-28T08:49:36.357Z,13.36
2022-09-28T08:52:13.566Z,13.42
2022-09-28T08:54:55.254Z,13.14
2022-09-28T08:57:31.959Z,13.24
2022-09-28T09:00:18.678Z,13.20
2022-09-28T09:02:49.255Z,13.59
2022-09-28T09:05:22.243Z,13.43
2022-09-28T09:08:14.142Z,13.29
2022-09-28T09:10:53.350Z,13.47
2022-09-28T09:13:49.940Z,13.52
2022-09-28T09:16:41.297Z,13.69
2022-09-28T09:19:18.404Z,13.73
2022-09-28T09:21:56.619Z,13.62
2022-09-28T09:24:28.486Z,13.44
2022-09-28T09:27:08.073Z,13.60
2022-09-28T09:30:01.875Z,13.57
2022-09-28T09:32:53.381Z,13.72
2022-09-28T09:36:03.492Z,13.88
2022-09-28T09:38:51.167Z,14.17
2022-09-28T09:41:38.797Z,14.31
2022-09-28T09:44:29.565Z,14.41
2022-09-28T09:47:07.826Z,14.65
2022-09-28T09:49:42.298Z,14.98
2022-09-28T09:52:22.200Z,15.42
2022-09-28T09:54:56.677Z,15.22
2022-09-28T09:57:31.497Z,15.16
2022-09-28T10:00:03.026Z,15.30
2022-09-28T10:02:36.038Z,15.45
2022-09-28T10:05:18.854Z,15.45
2022-09-28T10:07:54.759Z,15.42
2022-09-28T10:10:31.145Z,15.46
2022-09-28T10:12:59.038Z,15.51
2022-09-28T10:15:29.292Z,15.43
2022-09-28T10:18:01.881Z,15.37
2022-09-28T10:20:38.225Z,15.27
2022-09-28T10:23:18.582Z,15.21
2022-09-28T10:25:53.292Z,15.41
2022-09-28T10:28:34.951Z,15.28
2022-09-28T10:31:37.314Z,14.69
2022-09-28T10:34:06.919Z,14.89
2022-09-28T10:36:47.072Z,14.70
2022-09-28T10:39:32.025Z,14.82
2022-09-28T10:42:04.472Z,14.66
2022-09-28T10:44:36.281Z,13.92
2022-09-28T10:47:14.691Z,13.85
2022-09-28T10:49:48.363Z,13.77
2022-09-28T10:52:41.545Z,13.81
2022-09-28T10:55:36.901Z,14.14
2022-09-28T10:58:28.607Z,14.13
2022-09-28T11:01:04.789Z,14.16
2022-09-28T11:03:33.227Z,14.16
2022-09-28T11:06:05.850Z,13.97
2022-09-28T11:08:39.565Z,13.83
2022-09-28T11:11:12.838Z,13.75
2022-09-28T11:13:45.836Z,13.76
2022-09-28T11:16:24.373Z,13.82
2022-09-28T11:18:52.733Z,14.12
2022-09-28T11:21:26.552Z,13.97
2022-09-28T11:24:07.756Z,13.57
2022-09-28T11:26:42.052Z,13.73
2022-09-28T11:29:23.750Z,13.60
2022-09-28T11:31:52.899Z,13.40
2022-09-28T11:34:36.516Z,13.41
2022-09-28T11:37:53.929Z,12.94
2022-09-28T11:40:40.227Z,12.87
2022-09-28T11:43:22.923Z,12.82
2022-09-28T11:46:02.457Z,12.90
2022-09-28T11:48:40.671Z,12.96
2022-09-28T11:51:20.606Z,12.98
2022-09-28T11:53:56.698Z,12.79
2022-09-28T11:56:38.002Z,12.96
2022-09-28T11:59:16.195Z,12.67
2022-09-28T12:01:53.342Z,12.64
2022-09-28T12:04:31.193Z,12.56
2022-09-28T12:07:07.659Z,12.49
2022-09-28T12:09:46.657Z,12.71
2022-09-28T12:12:26.447Z,13.14
2022-09-28T12:14:59.587Z,13.46
2022-09-28T12:17:35.769Z,13.90
2022-09-28T12:20:19.897Z,13.93
2022-09-28T12:23:02.306Z,13.96
2022-09-28T12:25:41.863Z,13.74
2022-09-28T12:28:23.292Z,13.70
2022-09-28T12:30:55.649Z,13.44
2022-09-28T12:33:23.597Z,13.65
2022-09-28T12:36:18.516Z,13.46
2022-09-28T12:39:27.063Z,13.45
2022-09-28T12:42:22.545Z,13.53
2022-09-28T12:45:23.495Z,13.57
2022-09-28T12:48:29.123Z,13.76
2022-09-28T12:51:17.917Z,13.36
2022-09-28T12:54:08.162Z,13.18
2022-09-28T12:57:00.272Z,13.53
2022-09-28T12:59:37.196Z,13.68
2022-09-28T13:02:58.259Z,13.87
2022-09-28T13:06:07.397Z,13.38
2022-09-28T13:08:51.305Z,13.41
2022-09-28T13:11:33.502Z,13.44
2022-09-28T13:14:34.528Z,13.23
2022-09-28T13:17:16.915Z,13.15
2022-09-28T13:19:56.333Z,13.12
2022-09-28T13:22:44.531Z,13.25
2022-09-28T13:25:17.926Z,13.25
2022-09-28T13:27:54.480Z,13.50
2022-09-28T13:30:23.381Z,13.41
2022-09-28T13:32:54.238Z,13.34
2022-09-28T13:35:22.392Z,13.44
2022-09-28T13:38:31.669Z,13.41
2022-09-28T13:41:24.775Z,13.16
2022-09-28T13:44:23.839Z,13.23
2022-09-28T13:47:20.480Z,13.18
2022-09-28T13:50:14.488Z,13.42
2022-09-28T13:52:53.393Z,13.09
2022-09-28T13:55:38.883Z,13.21
2022-09-28T13:58:25.668Z,13.01
2022-09-28T14:01:04.495Z,13.46
2022-09-28T14:03:55.011Z,13.13
2022-09-28T14:06:27.314Z,13.01
2022-09-28T14:09:42.776Z,12.79
2022-09-28T14:12:47.310Z,12.97
2022-09-28T14:15:45.161Z,12.95
2022-09-28T14:18:30.562Z,12.96
2022-09-28T14:21:37.956Z,13.42
2022-09-28T14:24:32.952Z,13.30
2022-09-28T14:27:49.134Z,12.77
2022-09-28T14:30:25.755Z,12.66
2022-09-28T14:33:00.119Z,12.79
2022-09-28T14:35:35.123Z,13.10
2022-09-28T14:38:32.072Z,13.32
2022-09-28T14:41:11.165Z,13.06
2022-09-28T14:44:02.455Z,13.08
2022-09-28T14:46:37.452Z,13.06
2022-09-28T14:49:52.495Z,13.37
2022-09-28T14:52:51.727Z,13.54
2022-09-28T14:55:37.531Z,13.74
2022-09-28T14:58:15.932Z,13.79
2022-09-28T15:00:47.893Z,13.78
2022-09-28T15:03:21.784Z,13.89
2022-09-28T15:05:50.459Z,13.80
2022-09-28T15:08:22.486Z,13.83
2022-09-28T15:10:52.553Z,13.62
2022-09-28T15:13:26.452Z,13.28
2022-09-28T15:16:09.803Z,13.40
2022-09-28T15:19:13.386Z,13.12
2022-09-28T15:21:45.280Z,12.84
2022-09-28T15:24:35.261Z,12.65
2022-09-28T15:27:17.407Z,12.87
2022-09-28T15:29:58.897Z,13.10
2022-09-28T15:32:34.097Z,12.92
2022-09-28T15:35:14.519Z,12.87
2022-09-28T15:37:43.761Z,13.04
2022-09-28T15:40:16.639Z,13.19
2022-09-28T15:42:46.274Z,13.47
2022-09-28T15:45:30.750Z,13.44
2022-09-28T15:48:21.231Z,13.43
2022-09-28T15:51:02.284Z,13.21
2022-09-28T15:53:31.308Z,13.22
2022-09-28T15:56:10.231Z,13.06
2022-09-28T15:58:39.939Z,12.87
2022-09-28T16:01:36.428Z,12.84
2022-09-28T16:04:44.376Z,12.84
2022-09-28T16:07:33.302Z,12.67
2022-09-28T16:10:33.500Z,12.54
2022-09-28T16:13:17.818Z,12.40
2022-09-28T16:15:45.916Z,12.26
2022-09-28T16:18:22.108Z,12.05
2022-09-28T16:20:53.577Z,12.00
2022-09-28T16:23:30.721Z,11.93
2022-09-28T16:26:03.036Z,11.58
2022-09-28T16:28:52.075Z,11.64
2022-09-28T16:31:34.601Z,11.38
2022-09-28T16:34:19.842Z,11.31
2022-09-28T16:36:51.510Z,11.35
2022-09-28T16:39:20.655Z,11.37
2022-09-28T16:41:53.727Z,11.35
2022-09-28T16:44:26.418Z,11.33
2022-09-28T16:46:56.895Z,11.27
2022-09-28T16:49:26.857Z,11.17
2022-09-28T16:51:56.048Z,11.03
2022-09-28T16:54:43.362Z,11.08
2022-09-28T16:57:15.887Z,11.16
2022-09-28T16:59:43.702Z,11.05
2022-09-28T17:02:46.126Z,11.06
2022-09-28T17:05:11.111Z,11.12
2022-09-28T17:07:41.382Z,11.05
2022-09-28T17:10:19.225Z,11.16
2022-09-28T17:12:47.581Z,11.19
2022-09-28T17:15:19.424Z,11.14
2022-09-28T17:17:47.818Z,11.21
2022-09-28T17:20:22.930Z,11.09
2022-09-28T17:22:53.394Z,11.11
2022-09-28T17:25:23.811Z,11.18
2022-09-28T17:27:54.555Z,11.23
2022-09-28T17:30:25.181Z,11.10
2022-09-28T17:32:53.789Z,10.81
2022-09-28T17:35:24.490Z,10.83
2022-09-28T17:37:54.481Z,10.90
2022-09-28T17:40:25.277Z,10.87
2022-09-28T17:42:56.098Z,10.77
2022-09-28T17:45:25.861Z,10.85
2022-09-28T17:47:53.567Z,10.89
2022-09-28T17:50:25.103Z,10.79
2022-09-28T17:52:55.857Z,10.70
2022-09-28T17:55:28.527Z,10.84
2022-09-28T17:57:57.943Z,10.75
2022-09-28T18:00:27.885Z,10.73
2022-09-28T18:02:56.446Z,10.73
2022-09-28T18:05:25.525Z,10.81
2022-09-28T18:07:55.120Z,10.81
2022-09-28T18:10:26.316Z,10.82
2022-09-28T18:12:54.176Z,10.75
2022-09-28T18:15:22.074Z,10.76
2022-09-28T18:17:50.096Z,10.75
2022-09-28T18:20:18.127Z,10.69
2022-09-28T18:22:45.954Z,10.71
2022-09-28T18:25:15.057Z,10.70
2022-09-28T18:27:43.167Z,10.79
2022-09-28T18:30:12.163Z,10.75
2022-09-28T18:32:40.265Z,10.73
2022-09-28T18:35:11.217Z,10.63
2022-09-28T18:37:40.839Z,10.65
2022-09-28T18:40:12.749Z,10.69
2022-09-28T18:42:43.186Z,10.64
2022-09-28T18:45:13.161Z,10.60
2022-09-28T18:47:41.360Z,10.56
2022-09-28T18:50:11.661Z,10.47
2022-09-28T18:52:40.943Z,10.46
2022-09-28T18:55:10.791Z,10.54
2022-09-28T18:57:40.384Z,10.48
2022-09-28T19:00:12.592Z,10.43
2022-09-28T19:02:40.917Z,10.40
2022-09-28T19:05:09.727Z,10.43
2022-09-28T19:07:37.665Z,10.43
2022-09-28T19:10:06.929Z,10.48
2022-09-28T19:12:36.425Z,10.38
2022-09-28T19:15:04.624Z,10.45
2022-09-28T19:17:34.283Z,10.45
2022-09-28T19:20:02.642Z,10.35
2022-09-28T19:22:31.323Z,10.39
2022-09-28T19:24:59.264Z,10.27
2022-09-28T19:27:27.117Z,10.29
2022-09-28T19:29:55.086Z,10.31
2022-09-28T19:32:22.956Z,10.29
2022-09-28T19:34:52.182Z,10.26
2022-09-28T19:37:20.020Z,10.12
2022-09-28T19:39:47.888Z,10.07
2022-09-28T19:42:15.742Z,10.04
2022-09-28T19:44:46.458Z,10.13
2022-09-28T19:47:14.593Z,10.21
2022-09-28T19:49:42.474Z,10.26
2022-09-28T19:52:16.946Z,10.33
2022-09-28T19:54:56.463Z,10.40
2022-09-28T19:57:25.920Z,10.45
2022-09-28T19:59:57.836Z,10.51
2022-09-28T20:02:29.153Z,10.44
2022-09-28T20:04:57.047Z,10.50
2022-09-28T20:07:26.371Z,10.55
2022-09-28T20:09:54.323Z,10.52
2022-09-28T20:12:22.251Z,10.36
2022-09-28T20:14:50.100Z,10.35
2022-09-28T20:17:19.282Z,10.17
2022-09-28T20:19:47.909Z,10.20
2022-09-28T20:22:16.927Z,10.16
2022-09-28T20:24:46.190Z,10.17
2022-09-28T20:27:16.883Z,10.30
2022-09-28T20:29:44.746Z,10.33
2022-09-28T20:32:12.673Z,10.40
2022-09-28T20:34:42.454Z,10.59
2022-09-28T20:37:12.491Z,10.61
2022-09-28T20:39:44.679Z,10.51
2022-09-28T20:42:17.403Z,10.70
2022-09-28T20:44:45.221Z,10.53
2022-09-28T20:47:14.944Z,10.54
2022-09-28T20:49:47.589Z,10.54
2022-09-28T20:52:15.430Z,10.56
2022-09-28T20:54:43.234Z,10.60
2022-09-28T20:57:18.288Z,10.57
2022-09-28T20:59:53.611Z,10.52
2022-09-28T21:02:22.877Z,10.60
2022-09-28T21:04:50.910Z,10.74
2022-09-28T21:07:18.708Z,10.61
2022-09-28T21:09:53.633Z,10.57
2022-09-28T21:12:21.485Z,10.61
2022-09-28T21:14:51.215Z,10.51
2022-09-28T21:17:22.746Z,10.46
2022-09-28T21:19:50.532Z,10.36
2022-09-28T21:22:18.386Z,10.24
2022-09-28T21:24:46.261Z,10.37
2022-09-28T21:27:16.047Z,10.26
2022-09-28T21:29:43.696Z,10.37
2022-09-28T21:32:12.981Z,10.29
2022-09-28T21:34:41.024Z,10.31
2022-09-28T21:37:09.077Z,10.29
2022-09-28T21:39:37.223Z,10.37
2022-09-28T21:42:05.410Z,10.33
2022-09-28T21:44:33.219Z,10.33
2022-09-28T21:47:01.073Z,10.31
2022-09-28T21:49:30.807Z,10.33
2022-09-28T21:51:58.504Z,10.27
2022-09-28T21:54:26.337Z,10.33
2022-09-28T21:56:54.122Z,10.23
2022-09-28T21:59:22.125Z,9.96
2022-09-28T22:01:49.963Z,10.08
2022-09-28T22:04:17.977Z,10.15
2022-09-28T22:06:47.181Z,10.18
2022-09-28T22:09:15.038Z,10.09
2022-09-28T22:11:42.870Z,10.07
2022-09-28T22:14:11.932Z,9.99
2022-09-28T22:16:40.647Z,10.00
2022-09-28T22:19:08.528Z,9.89
2022-09-28T22:21:36.641Z,9.93
2022-09-28T22:24:08.127Z,9.91
2022-09-28T22:26:39.376Z,9.85
2022-09-28T22:29:10.199Z,9.87
2022-09-28T22:31:41.391Z,9.97
2022-09-28T22:34:11.004Z,9.91
2022-09-28T22:36:38.977Z,9.88
2022-09-28T22:39:14.759Z,9.96
2022-09-28T22:41:42.573Z,9.93
2022-09-28T22:44:10.398Z,9.95
2022-09-28T22:46:38.329Z,10.00
2022-09-28T22:49:06.456Z,9.99
2022-09-28T22:51:34.313Z,9.99
2022-09-28T22:54:02.249Z,10.06
2022-09-28T22:56:31.960Z,10.04
2022-09-28T22:58:59.965Z,10.00
2022-09-28T23:01:30.469Z,10.09
2022-09-28T23:03:59.504Z,10.11
2022-09-28T23:06:30.254Z,10.17
2022-09-28T23:08:58.739Z,10.19
2022-09-28T23:11:26.730Z,10.12
2022-09-28T23:13:59.625Z,10.24
2022-09-28T23:16:30.075Z,10.15
2022-09-28T23:18:58.685Z,10.14
2022-09-28T23:21:28.394Z,10.13
2022-09-28T23:24:00.925Z,10.14
2022-09-28T23:26:32.012Z,10.12
2022-09-28T23:29:01.664Z,10.14
2022-09-28T23:31:32.146Z,10.11
2022-09-28T23:34:02.296Z,10.14
2022-09-28T23:36:31.384Z,10.11
2022-09-28T23:38:59.766Z,10.07
2022-09-28T23:41:27.766Z,9.99
2022-09-28T23:43:55.698Z,10.08
2022-09-28T23:46:25.043Z,10.00
2022-09-28T23:48:53.310Z,10.11
2022-09-28T23:51:21.482Z,9.93
2022-09-28T23:53:49.320Z,9.95
2022-09-28T23:56:17.212Z,10.05
2022-09-28T23:58:45.059Z,9.96
